Time;durP1;ratioP1;P1;durP2;ratioP2;P2;SDS_P1;SDS_P2;PMS_P1;PMS_P2;Temp;Humidity;BMP_temperature;BMP_pressure;BME280_temperature;BME280_humidity;BME280_pressure;Samples;Min_cycle;Max_cycle;Signal;HPM_P1;HPM_P2
2021/10/27 00:01:13;;;;;;;44.65;24.75;;;;;;;;;;6276960;22;20003;-58
2021/10/27 00:03:39;;;;;;;44.30;27.08;;;;;;;;;;6277293;22;20030;-58
2021/10/27 00:06:05;;;;;;;74.07;40.50;;;;;;;;;;6276565;22;20027;-58
2021/10/27 00:08:31;;;;;;;44.70;28.00;;;;;;;;;;6276367;22;19995;-58
2021/10/27 00:10:56;;;;;;;53.65;28.95;;;;;;;;;;6249540;22;19999;-58
2021/10/27 00:13:22;;;;;;;41.50;25.13;;;;;;;;;;6276304;22;20078;-60
2021/10/27 00:15:47;;;;;;;66.63;39.55;;;;;;;;;;6276630;22;19999;-60
2021/10/27 00:18:13;;;;;;;50.30;29.90;;;;;;;;;;6276374;22;19992;-60
2021/10/27 00:20:38;;;;;;;41.28;25.38;;;;;;;;;;6276740;22;20424;-60
2021/10/27 00:23:04;;;;;;;47.42;27.90;;;;;;;;;;6276918;22;19999;-60
2021/10/27 00:25:29;;;;;;;43.38;25.40;;;;;;;;;;6276713;22;20004;-60
2021/10/27 00:27:54;;;;;;;51.13;31.88;;;;;;;;;;6276600;22;20003;-60
2021/10/27 00:30:20;;;;;;;48.25;28.23;;;;;;;;;;6249380;22;20008;-60
2021/10/27 00:32:45;;;;;;;48.78;27.77;;;;;;;;;;6276452;22;19996;-60
2021/10/27 00:35:11;;;;;;;48.17;27.45;;;;;;;;;;6276718;22;20015;-58
2021/10/27 00:37:37;;;;;;;41.10;26.63;;;;;;;;;;6276735;22;20010;-57
2021/10/27 00:40:03;;;;;;;50.30;27.15;;;;;;;;;;6276490;22;20014;-57
2021/10/27 00:42:28;;;;;;;43.53;26.17;;;;;;;;;;6275923;22;19996;-58
2021/10/27 00:44:54;;;;;;;47.40;26.15;;;;;;;;;;6276425;22;20384;-57
2021/10/27 00:47:19;;;;;;;43.40;26.83;;;;;;;;;;6276438;22;20446;-60
2021/10/27 00:49:45;;;;;;;56.25;34.30;;;;;;;;;;6276208;22;20375;-60
2021/10/27 00:52:12;;;;;;;51.08;31.55;;;;;;;;;;6249434;22;20455;-60
2021/10/27 00:54:40;;;;;;;45.55;25.52;;;;;;;;;;6276283;22;19999;-60
2021/10/27 00:57:06;;;;;;;45.50;26.77;;;;;;;;;;6276326;22;19992;-58
2021/10/27 00:59:33;;;;;;;45.83;27.30;;;;;;;;;;6276716;22;20004;-58
2021/10/27 01:01:58;;;;;;;44.97;26.30;;;;;;;;;;6276423;22;19999;-59
2021/10/27 01:04:24;;;;;;;48.97;25.08;;;;;;;;;;6276452;22;20023;-64
2021/10/27 01:06:50;;;;;;;39.17;23.95;;;;;;;;;;6277163;22;20000;-58
2021/10/27 01:09:16;;;;;;;45.28;25.65;;;;;;;;;;6278316;22;20019;-58
2021/10/27 01:11:42;;;;;;;47.60;25.80;;;;;;;;;;6278382;22;20006;-60
2021/10/27 01:14:08;;;;;;;48.42;25.98;;;;;;;;;;6251381;22;20027;-62
2021/10/27 01:16:34;;;;;;;44.58;25.58;;;;;;;;;;6251284;22;20018;-60
2021/10/27 01:18:59;;;;;;;40.55;24.67;;;;;;;;;;6278378;22;20003;-62
2021/10/27 01:21:25;;;;;;;37.55;22.77;;;;;;;;;;6251061;22;19996;-62
2021/10/27 01:23:51;;;;;;;42.40;24.50;;;;;;;;;;6278259;22;20044;-62
2021/10/27 01:26:17;;;;;;;39.00;24.48;;;;;;;;;;6278554;22;19992;-62
2021/10/27 01:28:43;;;;;;;41.05;25.48;;;;;;;;;;6278263;22;20103;-62
2021/10/27 01:31:09;;;;;;;38.97;23.33;;;;;;;;;;6251180;22;20000;-62
2021/10/27 01:33:35;;;;;;;36.08;22.17;;;;;;;;;;6278473;22;20004;-62
2021/10/27 01:36:01;;;;;;;34.90;22.75;;;;;;;;;;6278193;22;20018;-62
2021/10/27 01:38:27;;;;;;;37.72;23.58;;;;;;;;;;6278205;22;20424;-62
2021/10/27 01:40:52;;;;;;;33.33;21.98;;;;;;;;;;6278153;22;19995;-62
2021/10/27 01:43:18;;;;;;;36.83;22.52;;;;;;;;;;6278244;22;20010;-62
2021/10/27 01:45:43;;;;;;;36.33;22.40;;;;;;;;;;6277877;22;20026;-62
2021/10/27 01:48:10;;;;;;;35.38;22.40;;;;;;;;;;6277355;22;20083;-62
2021/10/27 01:50:36;;;;;;;30.38;21.85;;;;;;;;;;6278347;22;20004;-60
2021/10/27 01:53:02;;;;;;;33.72;21.20;;;;;;;;;;6277897;22;20443;-61
2021/10/27 01:55:27;;;;;;;37.50;21.70;;;;;;;;;;6278008;22;19996;-60
2021/10/27 01:57:53;;;;;;;34.67;22.48;;;;;;;;;;6277806;22;20078;-60
2021/10/27 02:00:18;;;;;;;32.55;21.55;;;;;;;;;;6251006;22;19992;-60
2021/10/27 02:02:45;;;;;;;34.80;21.70;;;;;;;;;;6277697;22;20032;-60
2021/10/27 02:05:12;;;;;;;35.85;21.23;;;;;;;;;;6277680;22;20008;-60
2021/10/27 02:07:38;;;;;;;35.65;22.33;;;;;;;;;;6277977;22;20035;-62
2021/10/27 02:10:08;;;;;;;38.10;23.58;;;;;;;;;;6277778;22;20428;-62
2021/10/27 02:12:34;;;;;;;36.80;22.27;;;;;;;;;;6277821;22;20050;-62
2021/10/27 02:15:00;;;;;;;35.75;21.45;;;;;;;;;;6277891;22;19999;-63
2021/10/27 02:17:25;;;;;;;32.65;20.83;;;;;;;;;;6277618;22;19999;-63
2021/10/27 02:19:52;;;;;;;32.78;20.00;;;;;;;;;;6277976;22;19991;-62
2021/10/27 02:22:17;;;;;;;30.88;20.00;;;;;;;;;;6277967;22;20033;-60
2021/10/27 02:24:43;;;;;;;34.45;20.63;;;;;;;;;;6277770;22;19996;-60
2021/10/27 02:27:08;;;;;;;33.72;21.08;;;;;;;;;;6277665;22;20003;-60
2021/10/27 02:29:34;;;;;;;30.55;20.88;;;;;;;;;;6277712;22;19995;-60
2021/10/27 02:32:00;;;;;;;31.75;21.27;;;;;;;;;;6277561;22;20012;-60
2021/10/27 02:34:26;;;;;;;29.20;20.30;;;;;;;;;;6277533;22;20074;-61
2021/10/27 02:36:51;;;;;;;37.63;21.90;;;;;;;;;;6277663;22;20054;-61
2021/10/27 02:39:17;;;;;;;34.50;21.85;;;;;;;;;;6277568;22;20044;-61
2021/10/27 02:41:42;;;;;;;32.22;21.08;;;;;;;;;;6277582;22;20042;-61
2021/10/27 02:44:08;;;;;;;33.97;21.80;;;;;;;;;;6277557;22;19999;-61
2021/10/27 02:46:33;;;;;;;36.83;21.95;;;;;;;;;;6277774;22;20400;-60
2021/10/27 02:48:59;;;;;;;33.95;20.90;;;;;;;;;;6276854;22;20085;-60
2021/10/27 02:51:24;;;;;;;32.45;20.67;;;;;;;;;;6277260;22;20010;-60
2021/10/27 02:53:50;;;;;;;35.42;21.77;;;;;;;;;;6277362;22;20383;-60
2021/10/27 02:56:15;;;;;;;31.90;20.38;;;;;;;;;;6250472;22;20011;-60
2021/10/27 02:58:43;;;;;;;36.67;20.98;;;;;;;;;;6277230;22;20076;-60
2021/10/27 03:01:08;;;;;;;32.33;21.20;;;;;;;;;;6277617;22;20428;-60
2021/10/27 03:03:34;;;;;;;36.05;20.15;;;;;;;;;;6277457;22;20006;-60
2021/10/27 03:06:00;;;;;;;34.30;20.60;;;;;;;;;;6277513;22;20014;-60
2021/10/27 03:08:26;;;;;;;32.42;19.98;;;;;;;;;;6277321;22;20409;-62
2021/10/27 03:10:51;;;;;;;29.05;19.60;;;;;;;;;;6277269;22;20082;-62
2021/10/27 03:13:19;;;;;;;30.45;19.85;;;;;;;;;;6277107;22;20439;-62
2021/10/27 03:15:44;;;;;;;32.78;20.77;;;;;;;;;;6277296;22;20004;-62
2021/10/27 03:18:10;;;;;;;32.20;20.67;;;;;;;;;;6277564;22;20318;-62
2021/10/27 03:20:35;;;;;;;30.08;19.85;;;;;;;;;;6277089;22;20007;-62
2021/10/27 03:23:01;;;;;;;34.28;20.83;;;;;;;;;;6277028;22;19996;-62
2021/10/27 03:25:26;;;;;;;33.05;20.42;;;;;;;;;;6276959;22;20452;-62
2021/10/27 03:27:52;;;;;;;31.60;20.23;;;;;;;;;;6276973;22;19999;-62
2021/10/27 03:30:17;;;;;;;32.92;21.38;;;;;;;;;;6276730;22;19999;-62
2021/10/27 03:32:43;;;;;;;33.55;20.58;;;;;;;;;;6276772;22;20038;-62
2021/10/27 03:35:08;;;;;;;31.35;22.23;;;;;;;;;;6277055;22;20000;-61
2021/10/27 03:37:35;;;;;;;30.45;21.05;;;;;;;;;;6277134;22;19996;-60
2021/10/27 03:40:01;;;;;;;31.20;20.15;;;;;;;;;;6277074;22;20003;-60
2021/10/27 03:42:27;;;;;;;30.02;20.85;;;;;;;;;;6276777;22;20413;-60
2021/10/27 03:44:53;;;;;;;35.83;22.20;;;;;;;;;;6277230;22;20012;-60
2021/10/27 03:47:18;;;;;;;36.42;23.02;;;;;;;;;;6277074;22;20086;-60
2021/10/27 03:49:44;;;;;;;35.63;22.70;;;;;;;;;;6276830;22;20011;-60
2021/10/27 03:52:09;;;;;;;32.20;21.63;;;;;;;;;;6277095;22;20008;-60
2021/10/27 03:54:35;;;;;;;32.25;21.60;;;;;;;;;;6277023;22;20008;-61
2021/10/27 03:57:01;;;;;;;33.53;21.88;;;;;;;;;;6276956;22;20003;-60
2021/10/27 03:59:27;;;;;;;36.53;22.25;;;;;;;;;;6276984;22;20473;-60
2021/10/27 04:01:53;;;;;;;32.63;22.25;;;;;;;;;;6249684;22;19996;-60
2021/10/27 04:04:18;;;;;;;29.63;21.58;;;;;;;;;;6249737;22;20008;-60
2021/10/27 04:06:44;;;;;;;35.88;22.80;;;;;;;;;;6249991;22;20468;-61
2021/10/27 04:09:10;;;;;;;36.40;21.98;;;;;;;;;;6277181;22;20039;-60
2021/10/27 04:11:36;;;;;;;35.60;22.70;;;;;;;;;;6276560;22;19999;-60
2021/10/27 04:14:01;;;;;;;36.38;22.38;;;;;;;;;;6276497;22;20010;-61
2021/10/27 04:16:27;;;;;;;36.95;22.23;;;;;;;;;;6276744;22;20002;-61
2021/10/27 04:18:52;;;;;;;36.58;22.88;;;;;;;;;;6276734;22;20436;-61
2021/10/27 04:21:18;;;;;;;36.90;23.15;;;;;;;;;;6276646;22;20412;-62
2021/10/27 04:23:43;;;;;;;34.53;21.83;;;;;;;;;;6276665;22;20004;-62
2021/10/27 04:26:08;;;;;;;34.45;22.33;;;;;;;;;;6276572;22;20443;-62
2021/10/27 04:28:34;;;;;;;34.10;21.80;;;;;;;;;;6276390;22;20000;-62
2021/10/27 04:31:01;;;;;;;32.30;21.50;;;;;;;;;;6276482;22;20010;-62
2021/10/27 04:33:27;;;;;;;30.10;20.75;;;;;;;;;;6276370;22;20313;-62
2021/10/27 04:35:52;;;;;;;31.50;22.85;;;;;;;;;;6276650;22;20022;-62
2021/10/27 04:38:20;;;;;;;33.65;21.60;;;;;;;;;;6276503;22;20006;-62
2021/10/27 04:40:45;;;;;;;35.30;25.48;;;;;;;;;;6276689;22;20075;-62
2021/10/27 04:43:12;;;;;;;37.17;25.45;;;;;;;;;;6276533;22;20039;-62
2021/10/27 04:45:38;;;;;;;33.58;22.60;;;;;;;;;;6276512;22;20003;-62
2021/10/27 04:48:04;;;;;;;39.13;19.88;;;;;;;;;;6275905;22;20008;-62
2021/10/27 04:50:30;;;;;;;32.63;20.08;;;;;;;;;;6276627;22;20018;-62
2021/10/27 04:52:56;;;;;;;27.17;19.10;;;;;;;;;;6276181;22;20039;-62
2021/10/27 04:55:21;;;;;;;28.42;18.80;;;;;;;;;;6276115;22;19999;-62
2021/10/27 04:57:47;;;;;;;29.45;20.42;;;;;;;;;;6276182;22;20000;-62
2021/10/27 05:00:13;;;;;;;82.50;43.45;;;;;;;;;;6276225;22;20466;-62
2021/10/27 05:02:38;;;;;;;63.28;39.25;;;;;;;;;;6276253;22;20432;-62
2021/10/27 05:05:04;;;;;;;35.13;23.90;;;;;;;;;;6276227;22;20074;-62
2021/10/27 05:07:30;;;;;;;27.52;20.05;;;;;;;;;;6276239;22;20031;-62
2021/10/27 05:09:56;;;;;;;30.48;20.73;;;;;;;;;;6275469;22;20078;-63
2021/10/27 05:12:22;;;;;;;30.95;20.60;;;;;;;;;;6276525;22;20332;-62
2021/10/27 05:14:48;;;;;;;34.65;22.85;;;;;;;;;;6276081;22;19992;-62
2021/10/27 05:17:14;;;;;;;35.95;23.98;;;;;;;;;;6276273;22;19999;-62
2021/10/27 05:19:40;;;;;;;82.75;39.20;;;;;;;;;;6276304;22;20028;-62
2021/10/27 05:22:07;;;;;;;44.70;27.83;;;;;;;;;;6276420;22;20004;-62
2021/10/27 05:24:32;;;;;;;31.88;22.92;;;;;;;;;;6276115;22;20022;-62
2021/10/27 05:26:58;;;;;;;71.38;36.10;;;;;;;;;;6276142;22;20436;-62
2021/10/27 05:29:24;;;;;;;43.25;27.73;;;;;;;;;;6275957;22;20082;-62
2021/10/27 05:31:50;;;;;;;39.42;26.35;;;;;;;;;;6276027;22;20008;-62
2021/10/27 05:34:15;;;;;;;40.60;24.55;;;;;;;;;;6276064;22;20446;-62
2021/10/27 05:36:42;;;;;;;33.53;20.70;;;;;;;;;;6276166;22;20015;-63
2021/10/27 05:39:10;;;;;;;50.40;28.80;;;;;;;;;;6275970;22;20038;-62
2021/10/27 05:41:36;;;;;;;51.08;29.83;;;;;;;;;;6276139;22;20102;-62
2021/10/27 05:44:02;;;;;;;65.07;37.97;;;;;;;;;;6276060;22;19996;-62
2021/10/27 05:46:28;;;;;;;39.15;25.35;;;;;;;;;;6276015;22;20023;-62
2021/10/27 05:49:04;;;;;;;29.98;20.23;;;;;;;;;;6275625;22;20321;-62
2021/10/27 05:56:51;;;;;;;28.25;20.02;;;;;;;;;;6277938;22;20138;-62
2021/10/27 05:59:16;;;;;;;58.60;38.55;;;;;;;;;;6277632;22;20034;-62
2021/10/27 06:01:42;;;;;;;110.45;65.85;;;;;;;;;;6277851;22;20004;-62
2021/10/27 06:04:08;;;;;;;43.97;28.58;;;;;;;;;;6277860;22;20430;-62
2021/10/27 06:06:33;;;;;;;38.33;24.70;;;;;;;;;;6277638;22;20057;-62
2021/10/27 06:09:00;;;;;;;33.65;21.85;;;;;;;;;;6277690;22;20014;-62
2021/10/27 06:11:25;;;;;;;30.73;21.08;;;;;;;;;;6277472;22;20428;-62
2021/10/27 06:13:50;;;;;;;47.97;28.63;;;;;;;;;;6277564;22;20020;-62
2021/10/27 06:16:16;;;;;;;61.42;32.45;;;;;;;;;;6277554;22;20040;-62
2021/10/27 06:18:42;;;;;;;42.45;26.33;;;;;;;;;;6277644;22;20050;-62
2021/10/27 06:21:09;;;;;;;38.47;24.25;;;;;;;;;;6277476;22;20004;-62
2021/10/27 06:23:35;;;;;;;36.70;24.13;;;;;;;;;;6277615;22;20027;-62
2021/10/27 06:26:00;;;;;;;49.33;30.70;;;;;;;;;;6277494;22;20007;-62
2021/10/27 06:28:29;;;;;;;38.40;24.50;;;;;;;;;;6277452;22;20006;-62
2021/10/27 06:31:01;;;;;;;33.65;22.70;;;;;;;;;;6250454;22;20008;-62
2021/10/27 06:36:12;;;;;;;32.75;20.80;;;;;;;;;;6277423;22;20006;-62
2021/10/27 06:39:09;;;;;;;34.90;22.42;;;;;;;;;;6277523;22;20083;-62
2021/10/27 06:46:51;;;;;;;32.42;22.80;;;;;;;;;;6277495;22;20011;-62
2021/10/27 06:49:17;;;;;;;36.95;23.20;;;;;;;;;;6276746;22;20011;-62
2021/10/27 06:51:43;;;;;;;36.95;23.35;;;;;;;;;;6277256;22;20012;-62
2021/10/27 06:54:08;;;;;;;34.85;23.00;;;;;;;;;;6277386;22;20010;-62
2021/10/27 06:56:35;;;;;;;34.50;23.15;;;;;;;;;;6277433;22;20436;-62
2021/10/27 07:02:10;;;;;;;38.42;26.13;;;;;;;;;;6277395;22;20035;-62
2021/10/27 07:17:31;;;;;;;34.25;22.98;;;;;;;;;;6277115;22;20034;-62
2021/10/27 07:19:57;;;;;;;34.90;22.67;;;;;;;;;;6277072;22;19999;-62
2021/10/27 07:22:22;;;;;;;30.75;20.52;;;;;;;;;;6277068;22;20002;-62
2021/10/27 07:24:47;;;;;;;31.25;22.08;;;;;;;;;;6277019;22;20103;-62
2021/10/27 07:27:13;;;;;;;32.17;19.58;;;;;;;;;;6277128;22;19999;-62
2021/10/27 07:29:42;;;;;;;26.60;18.70;;;;;;;;;;6276923;22;20008;-62
2021/10/27 07:32:10;;;;;;;28.80;18.50;;;;;;;;;;6277104;22;20030;-62
2021/10/27 07:34:38;;;;;;;27.58;18.08;;;;;;;;;;6276904;22;20451;-62
2021/10/27 07:42:20;;;;;;;29.13;18.48;;;;;;;;;;6277008;22;20436;-62
2021/10/27 07:44:45;;;;;;;30.73;18.83;;;;;;;;;;6276656;22;20006;-62
2021/10/27 07:47:11;;;;;;;30.55;17.25;;;;;;;;;;6276804;22;20455;-62
2021/10/27 07:49:36;;;;;;;31.25;19.35;;;;;;;;;;6276644;22;20102;-62
2021/10/27 07:52:02;;;;;;;27.42;17.27;;;;;;;;;;6276602;22;20053;-62
2021/10/27 07:54:28;;;;;;;24.75;16.38;;;;;;;;;;6276242;22;20015;-62
2021/10/27 07:56:54;;;;;;;26.75;17.00;;;;;;;;;;6276533;22;20440;-62
2021/10/27 07:59:21;;;;;;;24.75;16.35;;;;;;;;;;6276585;22;20003;-62
2021/10/27 08:01:46;;;;;;;27.92;17.15;;;;;;;;;;6276721;22;20046;-62
2021/10/27 08:04:11;;;;;;;26.88;16.25;;;;;;;;;;6276644;22;20003;-62
2021/10/27 08:06:37;;;;;;;31.58;17.55;;;;;;;;;;6276584;22;20432;-62
2021/10/27 08:09:03;;;;;;;31.90;21.58;;;;;;;;;;6276571;22;20027;-62
2021/10/27 08:11:29;;;;;;;25.08;16.55;;;;;;;;;;6276419;22;20007;-62
2021/10/27 08:13:55;;;;;;;25.50;15.73;;;;;;;;;;6276603;22;20435;-62
2021/10/27 08:16:21;;;;;;;26.08;15.40;;;;;;;;;;6276400;22;20032;-62
2021/10/27 08:18:46;;;;;;;22.73;13.55;;;;;;;;;;6276643;22;20328;-62
2021/10/27 08:21:12;;;;;;;24.85;14.18;;;;;;;;;;6275770;22;20004;-62
2021/10/27 08:23:42;;;;;;;23.25;13.45;;;;;;;;;;6276383;22;19995;-62
2021/10/27 08:26:11;;;;;;;22.83;14.02;;;;;;;;;;6276512;22;20086;-62
2021/10/27 08:28:43;;;;;;;23.80;13.35;;;;;;;;;;6276670;22;20004;-62
2021/10/27 08:34:01;;;;;;;18.73;12.50;;;;;;;;;;6276281;22;20014;-62
2021/10/27 08:36:27;;;;;;;23.33;12.55;;;;;;;;;;6276573;22;20341;-62
2021/10/27 08:38:53;;;;;;;20.25;12.73;;;;;;;;;;6276445;22;19992;-62
2021/10/27 08:41:18;;;;;;;17.70;11.90;;;;;;;;;;6276279;22;19999;-62
2021/10/27 08:43:44;;;;;;;19.95;11.73;;;;;;;;;;6276374;22;20443;-62
2021/10/27 08:46:11;;;;;;;19.73;11.18;;;;;;;;;;6276402;22;20008;-62
2021/10/27 08:48:38;;;;;;;18.52;11.27;;;;;;;;;;6275648;22;20099;-60
2021/10/27 08:51:05;;;;;;;17.05;10.93;;;;;;;;;;6276359;22;20039;-60
2021/10/27 08:53:31;;;;;;;13.65;9.73;;;;;;;;;;6276297;22;20412;-60
2021/10/27 08:56:01;;;;;;;16.58;10.55;;;;;;;;;;6249069;22;20004;-60
2021/10/27 08:58:34;;;;;;;18.17;10.70;;;;;;;;;;6276343;22;20085;-60
2021/10/27 09:01:16;;;;;;;15.82;10.63;;;;;;;;;;6276310;22;20010;-62
2021/10/27 09:06:55;;;;;;;17.17;9.68;;;;;;;;;;6276286;22;20004;-62
2021/10/27 09:15:22;;;;;;;14.18;8.48;;;;;;;;;;6249382;22;20003;-62
2021/10/27 09:34:55;;;;;;;;;;;;;;;;;;6251650;22;20436;-62
2021/10/27 10:04:02;;;;;;;10.13;6.45;;;;;;;;;;6278235;22;20000;-62
2021/10/27 10:05:10;;;;;;;8.43;6.35;;;;;;;;;;6277730;22;20340;-62
2021/10/27 10:07:36;;;;;;;9.15;6.43;;;;;;;;;;6225347;22;20375;-62
2021/10/27 10:10:04;;;;;;;9.20;5.78;;;;;;;;;;6277759;22;20337;-62
2021/10/27 10:12:32;;;;;;;7.97;5.72;;;;;;;;;;6277745;22;19996;-60
2021/10/27 10:14:58;;;;;;;6.63;5.18;;;;;;;;;;6277765;22;20428;-60
2021/10/27 10:17:24;;;;;;;7.10;5.38;;;;;;;;;;6277900;22;20070;-62
2021/10/27 10:19:49;;;;;;;7.13;5.50;;;;;;;;;;6277558;22;20474;-62
2021/10/27 10:22:37;;;;;;;9.00;6.00;;;;;;;;;;6277702;22;20489;-62
2021/10/27 10:25:15;;;;;;;7.20;5.15;;;;;;;;;;6278074;22;20031;-62
2021/10/27 10:27:42;;;;;;;8.93;6.05;;;;;;;;;;6278033;22;20003;-62
2021/10/27 10:30:27;;;;;;;12.23;4.95;;;;;;;;;;6277512;22;20170;-62
2021/10/27 10:33:02;;;;;;;8.88;5.88;;;;;;;;;;6277582;22;20007;-62
2021/10/27 10:35:39;;;;;;;7.43;5.22;;;;;;;;;;6277617;22;20130;-62
2021/10/27 10:38:23;;;;;;;7.60;5.10;;;;;;;;;;6277319;22;20003;-62
2021/10/27 10:41:11;;;;;;;6.35;4.88;;;;;;;;;;6277082;22;20000;-63
2021/10/27 11:24:32;;;;;;;5.78;4.35;;;;;;;;;;6277220;22;20010;-60
2021/10/27 11:27:16;;;;;;;5.72;4.18;;;;;;;;;;6277196;22;20007;-60
2021/10/27 11:40:47;;;;;;;6.07;4.18;;;;;;;;;;6276744;22;20034;-62
2021/10/27 11:43:31;;;;;;;7.88;4.07;;;;;;;;;;6276744;22;20045;-62
2021/10/27 11:49:15;;;;;;;6.65;4.55;;;;;;;;;;6276374;22;20444;-62
2021/10/27 11:51:21;;;;;;;5.70;4.45;;;;;;;;;;6264128;22;20490;-62
2021/10/27 11:53:49;;;;;;;3.95;3.55;;;;;;;;;;6276779;22;20424;-62
2021/10/27 11:56:16;;;;;;;6.50;3.85;;;;;;;;;;6276708;22;20006;-62
2021/10/27 11:58:42;;;;;;;4.55;3.88;;;;;;;;;;6276907;22;20458;-62
2021/10/27 12:01:13;;;;;;;5.47;3.70;;;;;;;;;;6276648;22;20000;-62
2021/10/27 12:03:41;;;;;;;4.25;2.88;;;;;;;;;;6276750;22;20003;-62
2021/10/27 12:06:13;;;;;;;5.30;3.75;;;;;;;;;;6276661;22;20000;-62
2021/10/27 12:09:03;;;;;;;3.83;3.50;;;;;;;;;;6276792;22;20061;-62
2021/10/27 12:20:28;;;;;;;4.22;3.10;;;;;;;;;;6182560;23;20425;-62
2021/10/27 12:22:57;;;;;;;4.82;3.55;;;;;;;;;;6264657;22;20012;-62
2021/10/27 12:25:23;;;;;;;4.03;3.33;;;;;;;;;;6276290;22;20000;-62
2021/10/27 12:27:49;;;;;;;5.13;3.72;;;;;;;;;;6276269;22;20030;-62
2021/10/27 12:30:17;;;;;;;5.93;3.13;;;;;;;;;;6276456;22;19995;-62
2021/10/27 12:32:50;;;;;;;5.47;3.70;;;;;;;;;;6275829;22;20010;-62
2021/10/27 12:35:16;;;;;;;5.43;3.30;;;;;;;;;;6276535;22;20004;-62
2021/10/27 12:40:09;;;;;;;4.05;2.25;;;;;;;;;;6276411;22;20027;-62
2021/10/27 12:42:35;;;;;;;7.80;4.00;;;;;;;;;;6276367;22;20069;-62
2021/10/27 12:45:02;;;;;;;12.50;4.50;;;;;;;;;;6276268;22;20008;-63
2021/10/27 12:47:29;;;;;;;5.65;3.90;;;;;;;;;;6276431;22;20002;-63
2021/10/27 12:50:06;;;;;;;5.13;3.00;;;;;;;;;;6276529;22;20046;-63
2021/10/27 12:52:38;;;;;;;4.95;3.33;;;;;;;;;;6276408;22;20007;-63
2021/10/27 12:55:13;;;;;;;5.13;3.35;;;;;;;;;;6276482;22;20026;-63
2021/10/27 12:57:43;;;;;;;4.28;3.33;;;;;;;;;;6276433;22;20000;-63
2021/10/27 13:00:46;;;;;;;4.20;3.28;;;;;;;;;;6276702;22;20011;-64
2021/10/27 13:03:31;;;;;;;4.53;2.92;;;;;;;;;;6278084;22;20365;-63
2021/10/27 13:06:50;;;;;;;3.67;3.08;;;;;;;;;;6278683;22;20054;-63
2021/10/27 13:11:44;;;;;;;3.60;2.67;;;;;;;;;;6230830;22;20008;-63
2021/10/27 13:30:28;;;;;;;6.55;3.60;;;;;;;;;;6278535;22;20010;-63
2021/10/27 13:32:53;;;;;;;4.55;3.90;;;;;;;;;;6277844;22;20054;-63
2021/10/27 13:35:19;;;;;;;5.80;3.80;;;;;;;;;;6278095;22;20058;-63
2021/10/27 13:37:45;;;;;;;8.55;4.72;;;;;;;;;;6278161;22;20002;-63
2021/10/27 13:40:11;;;;;;;7.30;4.45;;;;;;;;;;6278094;22;20436;-63
2021/10/27 13:45:26;;;;;;;8.00;4.32;;;;;;;;;;6277982;22;20011;-63
2021/10/27 13:48:11;;;;;;;6.05;4.20;;;;;;;;;;6250653;22;20054;-64
2021/10/27 13:58:46;;;;;;;8.98;5.47;;;;;;;;;;6250980;22;20003;-63
2021/10/27 14:09:30;;;;;;;8.40;5.68;;;;;;;;;;6277764;22;20083;-63
2021/10/27 14:11:59;;;;;;;8.93;5.78;;;;;;;;;;6277833;22;20012;-63
2021/10/27 14:14:53;;;;;;;9.90;5.47;;;;;;;;;;6277414;22;20010;-63
2021/10/27 14:23:19;;;;;;;9.13;5.50;;;;;;;;;;6195250;22;20180;-63
2021/10/27 15:19:57;;;;;;;14.13;9.80;;;;;;;;;;6276727;22;20083;-63
2021/10/27 15:40:59;;;;;;;59.80;28.15;;;;;;;;;;6277108;22;20506;-63
2021/10/27 15:51:28;;;;;;;39.05;18.73;;;;;;;;;;6276754;22;20014;-63
2021/10/27 15:53:55;;;;;;;28.90;16.25;;;;;;;;;;6276608;22;19999;-63
2021/10/27 15:56:22;;;;;;;30.15;18.40;;;;;;;;;;6276585;22;20390;-64
2021/10/27 15:58:47;;;;;;;44.80;18.60;;;;;;;;;;6276746;22;19991;-63
2021/10/27 16:01:13;;;;;;;232.57;83.72;;;;;;;;;;6276692;22;20007;-63
2021/10/27 16:03:38;;;;;;;163.38;58.63;;;;;;;;;;6276477;22;20075;-63
2021/10/27 16:06:07;;;;;;;77.15;33.08;;;;;;;;;;6276376;22;20432;-65
2021/10/27 16:08:35;;;;;;;89.50;43.90;;;;;;;;;;6276640;22;20070;-65
2021/10/27 16:11:01;;;;;;;110.07;50.30;;;;;;;;;;6276629;22;20008;-63
2021/10/27 16:13:27;;;;;;;139.48;58.67;;;;;;;;;;6275798;22;20053;-63
2021/10/27 16:16:00;;;;;;;188.68;71.10;;;;;;;;;;6276402;22;20004;-62
2021/10/27 16:18:27;;;;;;;149.20;58.92;;;;;;;;;;6267438;22;20012;-65
2021/10/27 16:20:53;;;;;;;260.27;94.72;;;;;;;;;;6272242;22;20375;-61
2021/10/27 16:23:20;;;;;;;245.27;78.20;;;;;;;;;;6271248;22;20008;-62
2021/10/27 16:25:45;;;;;;;168.95;56.03;;;;;;;;;;6271226;22;20442;-62
2021/10/27 16:28:11;;;;;;;144.35;49.25;;;;;;;;;;6270906;22;20011;-62
2021/10/27 16:30:37;;;;;;;136.60;49.25;;;;;;;;;;6271010;22;20083;-62
2021/10/27 16:33:03;;;;;;;86.57;36.03;;;;;;;;;;6271014;22;20153;-62
2021/10/27 16:35:29;;;;;;;73.63;31.67;;;;;;;;;;6271334;22;20023;-62
2021/10/27 16:37:55;;;;;;;59.33;28.80;;;;;;;;;;6270567;22;20008;-62
2021/10/27 16:40:20;;;;;;;63.08;33.80;;;;;;;;;;6270954;22;19999;-62
2021/10/27 16:42:47;;;;;;;66.57;33.70;;;;;;;;;;6271116;22;20011;-61
2021/10/27 16:45:13;;;;;;;64.85;31.58;;;;;;;;;;6270922;22;20061;-61
2021/10/27 16:47:39;;;;;;;87.68;40.28;;;;;;;;;;6270620;22;20012;-62
2021/10/27 16:50:05;;;;;;;85.75;40.78;;;;;;;;;;6238102;23;20317;-62
2021/10/27 16:52:31;;;;;;;57.33;31.65;;;;;;;;;;6240527;23;20583;-62
2021/10/27 16:54:57;;;;;;;84.97;37.10;;;;;;;;;;6240237;23;20024;-61
2021/10/27 16:57:23;;;;;;;78.55;39.90;;;;;;;;;;6240613;23;20467;-62
2021/10/27 16:59:49;;;;;;;68.60;39.50;;;;;;;;;;6240217;23;20003;-62
2021/10/27 17:02:14;;;;;;;47.72;27.08;;;;;;;;;;6240614;23;20005;-62
2021/10/27 17:04:40;;;;;;;63.08;33.60;;;;;;;;;;6240506;23;20310;-62
2021/10/27 17:07:05;;;;;;;59.55;30.77;;;;;;;;;;6240295;23;20008;-61
2021/10/27 17:09:31;;;;;;;65.38;35.55;;;;;;;;;;6239225;23;20004;-62
2021/10/27 17:11:56;;;;;;;59.03;31.65;;;;;;;;;;6240189;23;20019;-61
2021/10/27 17:14:22;;;;;;;67.68;34.13;;;;;;;;;;6240542;23;20000;-62
2021/10/27 17:16:47;;;;;;;126.97;63.20;;;;;;;;;;6240475;23;20048;-61
2021/10/27 17:19:13;;;;;;;83.10;46.92;;;;;;;;;;6240012;23;20050;-61
2021/10/27 17:21:40;;;;;;;84.75;45.55;;;;;;;;;;6240204;23;20432;-62
2021/10/27 17:24:06;;;;;;;75.72;38.72;;;;;;;;;;6240279;23;20011;-62
2021/10/27 17:26:32;;;;;;;78.65;36.83;;;;;;;;;;6240291;23;20016;-61
2021/10/27 17:28:57;;;;;;;81.60;37.92;;;;;;;;;;6239963;23;20054;-61
2021/10/27 17:31:24;;;;;;;63.28;34.17;;;;;;;;;;6240463;23;20018;-61
2021/10/27 17:33:50;;;;;;;59.80;32.05;;;;;;;;;;6239915;23;20494;-61
2021/10/27 17:36:16;;;;;;;63.67;32.70;;;;;;;;;;6240213;23;20340;-61
2021/10/27 17:38:42;;;;;;;68.53;34.35;;;;;;;;;;6240067;23;19997;-61
2021/10/27 17:41:08;;;;;;;64.18;33.85;;;;;;;;;;6240359;23;20004;-62
2021/10/27 17:43:34;;;;;;;57.35;31.08;;;;;;;;;;6240060;23;20004;-62
2021/10/27 17:46:04;;;;;;;49.50;27.25;;;;;;;;;;6240045;23;20333;-60
2021/10/27 17:48:43;;;;;;;46.95;25.98;;;;;;;;;;6240093;23;20452;-60
2021/10/27 17:59:10;;;;;;;45.25;24.92;;;;;;;;;;6241691;23;20063;-62
2021/10/27 18:01:35;;;;;;;53.97;28.20;;;;;;;;;;6241846;23;19996;-61
2021/10/27 18:04:04;;;;;;;60.55;31.33;;;;;;;;;;6241246;23;20456;-62
2021/10/27 18:06:29;;;;;;;44.40;26.13;;;;;;;;;;6241570;23;20004;-61
2021/10/27 18:08:55;;;;;;;49.55;26.75;;;;;;;;;;6240263;23;20022;-61
2021/10/27 18:11:24;;;;;;;46.10;26.98;;;;;;;;;;6241481;23;20007;-61
2021/10/27 18:14:03;;;;;;;45.60;27.02;;;;;;;;;;6241706;23;20012;-61
2021/10/27 18:21:49;;;;;;;49.78;25.52;;;;;;;;;;6242035;23;20004;-61
2021/10/27 18:43:19;;;;;;;58.97;30.23;;;;;;;;;;6241530;23;20341;-62
2021/10/27 18:45:43;;;;;;;58.20;29.25;;;;;;;;;;6240796;23;20024;-62
2021/10/27 18:48:10;;;;;;;62.95;31.23;;;;;;;;;;6241005;23;20008;-62
2021/10/27 18:50:56;;;;;;;54.90;29.25;;;;;;;;;;6240876;23;20020;-60
2021/10/27 18:58:29;;;;;;;72.20;33.58;;;;;;;;;;6237776;23;19996;-60
2021/10/27 19:11:33;;;;;;;62.92;32.80;;;;;;;;;;6240747;23;20012;-62
2021/10/27 19:16:25;;;;;;;65.78;34.90;;;;;;;;;;6241314;23;19926;-62
2021/10/27 19:18:52;;;;;;;71.80;37.85;;;;;;;;;;6240473;23;20030;-62
2021/10/27 19:21:19;;;;;;;206.70;82.57;;;;;;;;;;6213486;23;20004;-62
2021/10/27 19:23:45;;;;;;;132.98;59.42;;;;;;;;;;6238148;23;20016;-62
2021/10/27 19:26:19;;;;;;;61.75;32.92;;;;;;;;;;6246384;23;20426;-63
2021/10/27 19:28:55;;;;;;;65.05;32.75;;;;;;;;;;6246566;23;20032;-60
2021/10/27 19:31:45;;;;;;;66.78;33.58;;;;;;;;;;6245298;23;20027;-59
2021/10/27 20:07:15;;;;;;;70.35;36.92;;;;;;;;;;6246199;22;20051;-60
2021/10/27 20:50:31;;;;;;;50.50;32.28;;;;;;;;;;6245186;22;20008;-61
2021/10/27 20:55:29;;;;;;;64.13;35.95;;;;;;;;;;6246127;23;19996;-61
2021/10/27 20:58:01;;;;;;;73.43;40.17;;;;;;;;;;6245792;23;20008;-62
2021/10/27 21:13:50;;;;;;;68.68;35.50;;;;;;;;;;6245984;23;20007;-60
2021/10/27 21:16:17;;;;;;;70.47;35.05;;;;;;;;;;6245974;23;20023;-62
2021/10/27 21:18:43;;;;;;;69.57;36.88;;;;;;;;;;6245847;23;20004;-62
2021/10/27 21:21:08;;;;;;;72.75;36.22;;;;;;;;;;6245691;23;20122;-61
2021/10/27 21:23:34;;;;;;;68.72;35.35;;;;;;;;;;6246966;23;20008;-62